National Weather Service Raw Text Product

Displaying AFOS PIL: TAFDSM Received: 2018-10-12 05:20 UTC


734 
FTUS43 KDMX 120520
TAFDSM
TAF
KDSM 120520Z 1206/1306 VRB03KT P6SM SCT120 BKN200
     FM121200 00000KT P6SM VCSH OVC030
     FM121500 25004KT 6SM -RA OVC010
     FM121900 26006KT P6SM OVC030
     FM130200 24008KT P6SM BKN050=